CYQY

Sydney / J.A. Douglas McCurdy Airport

Sydney, Nova Scotia, Canada
METAR CYQY 201825Z 02009KT 360V060 15SM -RA BKN033 BKN042 11/05 A3023 RMK SC5SC2 SLP238
Observed Flight Rules
Sep-20 @ 18:25 UTC (10 minutes ago) Visual Flight Rules
Wind Visibility Clouds Conditions
20° at 9 knots 15 miles
  • Broken at 3,300' AGL
  • Broken at 4,200' AGL
  • Light Rain
Temperatures Readings
Current 11°C / 52°F
Dewpoint 5°C / 41°F
Humidity 67%
Altimeter 30.23" Hg
Pressure 1023.8 hPa
Elevation 62
METAR CYQY 201825Z 02009KT 360V060 15SM -RA BKN033 BKN042 11/05 A3023 RMK SC5SC2 SLP238
Observed Flight Rules
Sep-20 @ 18:25 UTC
(10 minutes ago)
VFR
Wind Visibility
20° at 9 knots 15 miles
Clouds
  • Broken at 3,300' AGL
  • Broken at 4,200' AGL
Conditions
  • Light Rain
Temperature Dewpoint
11°C / 52°F 5°C / 41°F
Humidity Altimeter Pressure
67% 30.23" Hg 1023.8 hPa